Time;durP1;ratioP1;P1;durP2;ratioP2;P2;SDS_P1;SDS_P2;PMS_P1;PMS_P2;Temp;Humidity;BMP_temperature;BMP_pressure;BME280_temperature;BME280_humidity;BME280_pressure;Samples;Min_cycle;Max_cycle;Signal;HPM_P1;HPM_P2
2022/12/17 13:06:45;;;;;;;0.00;0.00;;;;;;;;;;4974495;28;20226;-77
2022/12/17 13:09:21;;;;;;;0.10;0.10;;;;;;;;;;4973793;28;20190;-77
2022/12/17 13:11:51;;;;;;;0.10;0.10;;;;;;;;;;4974396;28;20210;-77
2022/12/17 13:14:20;;;;;;;0.00;0.00;;;;;;;;;;4975742;28;20252;-77
2022/12/17 13:16:52;;;;;;;0.00;0.00;;;;;;;;;;4970240;28;20260;-77
2022/12/17 13:19:32;;;;;;;0.10;0.10;;;;;;;;;;4978147;28;20261;-76
2022/12/17 13:22:12;;;;;;;0.10;0.10;;;;;;;;;;4977733;28;20276;-77
2022/12/17 13:24:44;;;;;;;0.07;0.07;;;;;;;;;;4977728;28;20274;-77
2022/12/17 13:27:28;;;;;;;0.00;0.00;;;;;;;;;;4977608;28;20302;-77
2022/12/17 13:29:57;;;;;;;0.10;0.10;;;;;;;;;;4977875;28;20261;-77
2022/12/17 13:32:29;;;;;;;0.10;0.10;;;;;;;;;;4976403;28;20611;-77
2022/12/17 13:35:05;;;;;;;0.10;0.10;;;;;;;;;;4963116;28;20312;-77
2022/12/17 13:37:44;;;;;;;0.07;0.07;;;;;;;;;;4980307;28;20220;-77
2022/12/17 13:40:20;;;;;;;0.10;0.10;;;;;;;;;;4973643;28;20629;-77
2022/12/17 13:42:49;;;;;;;0.10;0.10;;;;;;;;;;4976763;28;20300;-76
2022/12/17 13:45:19;;;;;;;0.10;0.10;;;;;;;;;;4977258;28;20844;-77
2022/12/17 13:47:54;;;;;;;0.10;0.10;;;;;;;;;;4975516;28;20232;-77
2022/12/17 13:50:23;;;;;;;0.10;0.10;;;;;;;;;;4975097;28;20252;-77
2022/12/17 13:53:12;;;;;;;0.10;0.10;;;;;;;;;;4961509;28;20225;-77
2022/12/17 13:55:41;;;;;;;0.10;0.10;;;;;;;;;;4971875;28;20284;-77
2022/12/17 13:58:20;;;;;;;0.10;0.10;;;;;;;;;;4992165;28;20714;-76
2022/12/17 14:00:49;;;;;;;0.10;0.10;;;;;;;;;;4976093;28;20244;-76
2022/12/17 14:03:22;;;;;;;0.10;0.10;;;;;;;;;;4975889;28;20202;-77
2022/12/17 14:06:11;;;;;;;0.10;0.10;;;;;;;;;;4976662;28;20228;-77
2022/12/17 14:08:41;;;;;;;0.10;0.10;;;;;;;;;;4964518;28;20296;-76
2022/12/17 14:13:58;;;;;;;0.10;0.10;;;;;;;;;;4957540;29;20727;-76
2022/12/17 14:16:27;;;;;;;0.10;0.10;;;;;;;;;;4974491;28;20265;-76
2022/12/17 14:18:56;;;;;;;0.10;0.10;;;;;;;;;;4976561;28;20268;-76
2022/12/17 14:21:26;;;;;;;0.10;0.10;;;;;;;;;;4973483;28;20287;-77
2022/12/17 14:23:57;;;;;;;0.10;0.10;;;;;;;;;;4972301;28;20300;-76
2022/12/17 14:26:25;;;;;;;0.10;0.10;;;;;;;;;;4976776;28;20264;-76
2022/12/17 14:28:54;;;;;;;0.10;0.10;;;;;;;;;;4971599;28;20252;-76
2022/12/17 14:31:24;;;;;;;0.10;0.10;;;;;;;;;;4976231;28;20223;-76
2022/12/17 14:34:06;;;;;;;0.10;0.10;;;;;;;;;;4982965;28;20214;-77
2022/12/17 14:36:36;;;;;;;0.10;0.10;;;;;;;;;;4988161;28;20277;-77
2022/12/17 14:39:10;;;;;;;0.10;0.10;;;;;;;;;;4964651;28;20208;-76
2022/12/17 14:44:27;;;;;;;0.10;0.10;;;;;;;;;;4972766;28;20303;-76
2022/12/17 14:47:07;;;;;;;0.10;0.10;;;;;;;;;;4973160;28;20261;-76
2022/12/17 14:49:35;;;;;;;0.10;0.10;;;;;;;;;;4961598;28;20300;-76
2022/12/17 14:52:12;;;;;;;0.10;0.10;;;;;;;;;;4977825;28;20642;-76
2022/12/17 14:54:47;;;;;;;0.10;0.10;;;;;;;;;;4967478;28;20251;-76
2022/12/17 14:57:20;;;;;;;0.10;0.10;;;;;;;;;;4973136;28;20257;-76
2022/12/17 14:59:49;;;;;;;0.10;0.10;;;;;;;;;;4970274;28;20282;-76
2022/12/17 15:02:22;;;;;;;0.20;0.20;;;;;;;;;;4973809;28;20262;-76
2022/12/17 15:04:52;;;;;;;0.10;0.10;;;;;;;;;;4967358;28;20231;-76
2022/12/17 15:07:24;;;;;;;0.10;0.10;;;;;;;;;;4972531;28;20280;-76
2022/12/17 15:09:55;;;;;;;0.10;0.10;;;;;;;;;;4973340;28;20695;-76
2022/12/17 15:12:28;;;;;;;0.13;0.13;;;;;;;;;;4971398;28;20201;-76
2022/12/17 15:14:57;;;;;;;0.10;0.10;;;;;;;;;;4971145;28;20267;-76
2022/12/17 15:17:25;;;;;;;0.20;0.20;;;;;;;;;;4972912;28;20627;-76
2022/12/17 15:19:54;;;;;;;0.20;0.20;;;;;;;;;;4977857;28;20292;-76
2022/12/17 15:22:23;;;;;;;0.20;0.20;;;;;;;;;;4971747;28;20241;-76
2022/12/17 15:24:53;;;;;;;0.10;0.10;;;;;;;;;;4972902;28;20270;-76
2022/12/17 15:27:22;;;;;;;0.10;0.10;;;;;;;;;;4989730;28;20195;-76
2022/12/17 15:29:50;;;;;;;0.10;0.10;;;;;;;;;;4991129;28;20209;-75
2022/12/17 15:32:20;;;;;;;0.10;0.10;;;;;;;;;;4990681;28;20284;-75
2022/12/17 15:34:49;;;;;;;0.10;0.10;;;;;;;;;;4984569;28;20312;-76
2022/12/17 15:37:18;;;;;;;0.10;0.10;;;;;;;;;;4972308;28;20232;-76
2022/12/17 15:39:55;;;;;;;0.10;0.10;;;;;;;;;;4974904;28;20233;-77
2022/12/17 15:45:09;;;;;;;0.10;0.10;;;;;;;;;;4968233;28;20229;-76
2022/12/17 15:47:38;;;;;;;0.10;0.10;;;;;;;;;;4964825;28;20210;-76
2022/12/17 15:50:07;;;;;;;0.20;0.20;;;;;;;;;;4971190;28;20336;-76
2022/12/17 15:52:36;;;;;;;0.10;0.10;;;;;;;;;;4966635;28;20305;-76
2022/12/17 15:55:06;;;;;;;0.10;0.10;;;;;;;;;;4960172;28;20231;-76
2022/12/17 15:57:35;;;;;;;0.10;0.10;;;;;;;;;;4959828;28;20304;-76
2022/12/17 16:00:04;;;;;;;0.20;0.20;;;;;;;;;;4972311;28;20272;-77
2022/12/17 16:02:34;;;;;;;0.10;0.10;;;;;;;;;;4969062;28;20295;-76
2022/12/17 16:05:07;;;;;;;0.20;0.20;;;;;;;;;;4952723;28;20221;-78
2022/12/17 16:07:36;;;;;;;0.20;0.20;;;;;;;;;;4979650;28;20622;-76
2022/12/17 16:10:07;;;;;;;0.10;0.10;;;;;;;;;;4983644;28;20256;-78
2022/12/17 16:12:35;;;;;;;0.20;0.20;;;;;;;;;;4986603;28;20267;-78
2022/12/17 16:15:04;;;;;;;0.20;0.20;;;;;;;;;;4983658;28;20276;-78
2022/12/17 16:17:33;;;;;;;0.10;0.10;;;;;;;;;;4979045;28;20220;-76
2022/12/17 16:20:01;;;;;;;0.20;0.20;;;;;;;;;;4984482;28;20206;-78
2022/12/17 16:22:30;;;;;;;0.13;0.13;;;;;;;;;;4970049;28;20201;-76
2022/12/17 16:24:59;;;;;;;0.20;0.20;;;;;;;;;;4975521;28;20249;-77
2022/12/17 16:27:29;;;;;;;0.20;0.20;;;;;;;;;;4980180;28;20209;-78
2022/12/17 16:29:57;;;;;;;0.10;0.10;;;;;;;;;;4981631;28;20216;-76
2022/12/17 16:32:26;;;;;;;0.17;0.17;;;;;;;;;;4979113;28;20253;-76
2022/12/17 16:35:03;;;;;;;0.20;0.20;;;;;;;;;;4965246;28;20268;-76
2022/12/17 16:37:32;;;;;;;0.20;0.20;;;;;;;;;;4972862;28;20322;-78
2022/12/17 16:40:00;;;;;;;0.17;0.17;;;;;;;;;;4970783;28;20234;-78
2022/12/17 16:42:30;;;;;;;0.20;0.20;;;;;;;;;;4971732;28;20210;-78
2022/12/17 16:44:59;;;;;;;0.20;0.20;;;;;;;;;;4967754;28;20695;-77
2022/12/17 16:47:28;;;;;;;0.20;0.20;;;;;;;;;;4961340;28;20268;-75
2022/12/17 16:49:56;;;;;;;0.20;0.20;;;;;;;;;;4975603;28;20202;-75
2022/12/17 16:52:25;;;;;;;0.20;0.20;;;;;;;;;;4968365;28;20260;-76
2022/12/17 16:54:53;;;;;;;0.20;0.20;;;;;;;;;;4977097;28;20308;-76
2022/12/17 16:57:22;;;;;;;0.20;0.20;;;;;;;;;;4979220;28;20250;-75
2022/12/17 16:59:52;;;;;;;0.20;0.20;;;;;;;;;;4975900;28;20576;-75
2022/12/17 17:02:20;;;;;;;0.20;0.20;;;;;;;;;;4976942;28;20289;-77
2022/12/17 17:04:49;;;;;;;0.20;0.20;;;;;;;;;;4976232;28;21052;-76
2022/12/17 17:07:17;;;;;;;0.20;0.20;;;;;;;;;;4975244;28;20243;-75
2022/12/17 17:09:46;;;;;;;0.20;0.20;;;;;;;;;;4972419;28;20299;-75
2022/12/17 17:12:15;;;;;;;0.20;0.20;;;;;;;;;;4972691;28;20232;-75
2022/12/17 17:14:45;;;;;;;0.20;0.20;;;;;;;;;;4986762;28;20275;-75
2022/12/17 17:17:15;;;;;;;0.20;0.20;;;;;;;;;;4971352;28;20203;-75
2022/12/17 17:19:43;;;;;;;0.20;0.20;;;;;;;;;;4975342;28;20223;-75
2022/12/17 17:22:15;;;;;;;0.20;0.20;;;;;;;;;;4959828;28;20615;-75
2022/12/17 17:24:43;;;;;;;0.20;0.20;;;;;;;;;;4971928;28;20774;-75
2022/12/17 17:27:12;;;;;;;0.20;0.20;;;;;;;;;;4993358;28;20618;-76
2022/12/17 17:29:40;;;;;;;0.10;0.10;;;;;;;;;;4974409;28;20641;-76
2022/12/17 17:32:09;;;;;;;0.20;0.20;;;;;;;;;;4977884;28;20208;-75
2022/12/17 17:34:42;;;;;;;0.20;0.20;;;;;;;;;;4978098;28;20636;-76
2022/12/17 17:37:10;;;;;;;0.20;0.20;;;;;;;;;;4977702;28;20718;-77
2022/12/17 17:39:39;;;;;;;0.20;0.20;;;;;;;;;;4975966;28;20702;-76
2022/12/17 17:42:08;;;;;;;0.20;0.20;;;;;;;;;;4985258;28;20211;-78
2022/12/17 17:44:37;;;;;;;0.20;0.20;;;;;;;;;;4974491;28;20560;-76
2022/12/17 17:47:05;;;;;;;0.20;0.20;;;;;;;;;;4978182;28;20203;-76
2022/12/17 17:49:34;;;;;;;0.20;0.20;;;;;;;;;;4969230;28;20198;-76
2022/12/17 17:52:04;;;;;;;0.20;0.20;;;;;;;;;;4978700;28;20229;-76
2022/12/17 17:54:39;;;;;;;0.20;0.20;;;;;;;;;;4969944;28;20222;-76
2022/12/17 17:57:08;;;;;;;0.20;0.20;;;;;;;;;;4969809;28;20221;-76
2022/12/17 17:59:38;;;;;;;0.20;0.20;;;;;;;;;;4978905;28;20222;-76
2022/12/17 18:02:07;;;;;;;0.20;0.20;;;;;;;;;;4973669;28;20212;-76
2022/12/17 18:04:37;;;;;;;0.30;0.30;;;;;;;;;;4967772;28;20202;-76
2022/12/17 18:07:21;;;;;;;0.20;0.20;;;;;;;;;;4977843;28;20210;-76
2022/12/17 18:09:54;;;;;;;0.20;0.20;;;;;;;;;;4983904;28;20204;-76
2022/12/17 18:15:09;;;;;;;0.20;0.20;;;;;;;;;;4976817;28;20732;-78
2022/12/17 18:17:44;;;;;;;0.20;0.20;;;;;;;;;;4972576;28;20242;-76
2022/12/17 18:20:13;;;;;;;0.20;0.20;;;;;;;;;;4972000;28;20237;-76
2022/12/17 18:22:44;;;;;;;0.20;0.20;;;;;;;;;;4976808;28;20615;-76
2022/12/17 18:25:14;;;;;;;0.30;0.30;;;;;;;;;;4970292;28;20280;-76
2022/12/17 18:27:43;;;;;;;0.30;0.30;;;;;;;;;;4967029;28;20203;-76
2022/12/17 18:30:12;;;;;;;0.20;0.20;;;;;;;;;;4964980;28;20204;-75
2022/12/17 18:32:41;;;;;;;0.30;0.30;;;;;;;;;;4967947;28;20218;-75
2022/12/17 18:35:10;;;;;;;0.20;0.20;;;;;;;;;;4979433;28;20234;-75
2022/12/17 18:37:38;;;;;;;0.20;0.20;;;;;;;;;;4975787;28;20454;-75
2022/12/17 18:40:09;;;;;;;0.20;0.20;;;;;;;;;;4966703;28;20253;-75
2022/12/17 18:45:24;;;;;;;0.20;0.20;;;;;;;;;;4976961;28;21859;-75
2022/12/17 18:47:54;;;;;;;0.20;0.20;;;;;;;;;;4973178;28;20407;-77
2022/12/17 18:50:22;;;;;;;0.20;0.20;;;;;;;;;;4973900;28;20285;-76
2022/12/17 18:52:51;;;;;;;0.20;0.20;;;;;;;;;;4964787;28;20234;-76
2022/12/17 18:55:21;;;;;;;0.20;0.20;;;;;;;;;;4970014;28;20253;-75
2022/12/17 18:57:50;;;;;;;0.20;0.20;;;;;;;;;;4957596;28;20249;-78
2022/12/17 19:00:22;;;;;;;0.20;0.20;;;;;;;;;;4971046;28;20318;-77
2022/12/17 19:02:51;;;;;;;0.20;0.20;;;;;;;;;;4955390;28;20292;-77
2022/12/17 19:05:19;;;;;;;0.20;0.20;;;;;;;;;;4984855;28;20265;-76
2022/12/17 19:07:48;;;;;;;0.20;0.20;;;;;;;;;;4966749;28;20647;-76
2022/12/17 19:10:16;;;;;;;0.20;0.20;;;;;;;;;;4966493;28;20807;-77
2022/12/17 19:12:47;;;;;;;0.20;0.20;;;;;;;;;;4966956;28;20244;-77
2022/12/17 19:15:15;;;;;;;0.30;0.30;;;;;;;;;;4965167;28;20266;-77
2022/12/17 19:17:44;;;;;;;0.20;0.20;;;;;;;;;;4963210;28;20209;-76
2022/12/17 19:20:12;;;;;;;0.30;0.30;;;;;;;;;;4959125;28;20258;-76
2022/12/17 19:22:41;;;;;;;0.20;0.20;;;;;;;;;;4970006;28;20886;-75
2022/12/17 19:25:10;;;;;;;0.30;0.30;;;;;;;;;;4968886;28;20265;-77
2022/12/17 19:27:39;;;;;;;0.30;0.30;;;;;;;;;;4969706;28;20293;-76
2022/12/17 19:30:10;;;;;;;0.20;0.20;;;;;;;;;;4971321;28;20286;-75
2022/12/17 19:32:38;;;;;;;0.30;0.30;;;;;;;;;;4981143;28;20702;-76
2022/12/17 19:35:07;;;;;;;0.30;0.30;;;;;;;;;;4619408;28;9999601;-75
2022/12/17 19:37:35;;;;;;;0.20;0.20;;;;;;;;;;4959897;28;20198;-77
2022/12/17 19:40:10;;;;;;;0.20;0.20;;;;;;;;;;4969798;28;20229;-78
2022/12/17 19:42:39;;;;;;;0.30;0.30;;;;;;;;;;4977645;28;20824;-76
2022/12/17 19:45:20;;;;;;;0.20;0.20;;;;;;;;;;4976995;28;20230;-79
2022/12/17 19:47:59;;;;;;;0.30;0.30;;;;;;;;;;4978378;28;20241;-77
2022/12/17 19:50:29;;;;;;;0.20;0.20;;;;;;;;;;4955708;28;20197;-77
2022/12/17 19:53:08;;;;;;;0.20;0.20;;;;;;;;;;4969997;28;20214;-77
2022/12/17 19:55:37;;;;;;;0.20;0.20;;;;;;;;;;4968988;28;20284;-77
2022/12/17 19:58:07;;;;;;;0.30;0.30;;;;;;;;;;4981172;28;20205;-78
2022/12/17 20:00:48;;;;;;;0.20;0.20;;;;;;;;;;4970433;28;20229;-82
2022/12/17 20:03:21;;;;;;;0.20;0.20;;;;;;;;;;4971923;28;20241;-84
2022/12/17 20:05:53;;;;;;;0.20;0.20;;;;;;;;;;4972002;28;21033;-83
2022/12/17 20:08:24;;;;;;;0.20;0.20;;;;;;;;;;4968798;28;20201;-80
2022/12/17 20:10:53;;;;;;;0.20;0.20;;;;;;;;;;4974611;28;20205;-78
2022/12/17 20:13:23;;;;;;;0.30;0.30;;;;;;;;;;4971982;28;20225;-80
2022/12/17 20:16:05;;;;;;;0.20;0.20;;;;;;;;;;4970811;28;20226;-83
2022/12/17 20:18:35;;;;;;;0.20;0.20;;;;;;;;;;4971748;28;20736;-81
2022/12/17 20:21:14;;;;;;;0.20;0.20;;;;;;;;;;4970435;28;20695;-77
2022/12/17 20:23:49;;;;;;;0.20;0.20;;;;;;;;;;4965355;28;20222;-81
2022/12/17 20:26:19;;;;;;;0.20;0.20;;;;;;;;;;4974904;28;20224;-80
2022/12/17 20:28:48;;;;;;;0.30;0.30;;;;;;;;;;4972147;28;20269;-81
2022/12/17 20:31:29;;;;;;;0.20;0.20;;;;;;;;;;4967167;28;20197;-83
2022/12/17 20:34:03;;;;;;;0.20;0.20;;;;;;;;;;4966048;28;20292;-81
2022/12/17 20:36:33;;;;;;;0.20;0.20;;;;;;;;;;4955719;28;20256;-83
2022/12/17 20:39:02;;;;;;;0.20;0.20;;;;;;;;;;4970461;28;20256;-77
2022/12/17 20:41:34;;;;;;;0.20;0.20;;;;;;;;;;4984851;28;20230;-78
2022/12/17 20:44:14;;;;;;;0.20;0.20;;;;;;;;;;4970882;28;20229;-81
2022/12/17 20:46:44;;;;;;;0.20;0.20;;;;;;;;;;4967231;28;20226;-77
2022/12/17 20:49:14;;;;;;;0.20;0.20;;;;;;;;;;4973471;28;20232;-77
2022/12/17 20:51:42;;;;;;;0.20;0.20;;;;;;;;;;4972400;28;20600;-77
2022/12/17 20:54:11;;;;;;;0.30;0.30;;;;;;;;;;4970841;28;20296;-77
2022/12/17 20:56:40;;;;;;;0.20;0.20;;;;;;;;;;4970915;28;20222;-77
2022/12/17 20:59:09;;;;;;;0.20;0.20;;;;;;;;;;4965350;28;20248;-78
2022/12/17 21:01:38;;;;;;;0.20;0.20;;;;;;;;;;4975771;28;20226;-78
2022/12/17 21:04:08;;;;;;;0.20;0.20;;;;;;;;;;4990827;28;20214;-85
2022/12/17 21:06:37;;;;;;;0.20;0.20;;;;;;;;;;4975630;28;20230;-80
2022/12/17 21:09:07;;;;;;;0.20;0.20;;;;;;;;;;4963514;28;20668;-79
2022/12/17 21:11:36;;;;;;;0.20;0.20;;;;;;;;;;4970528;28;20206;-75
2022/12/17 21:14:05;;;;;;;0.20;0.20;;;;;;;;;;4958257;28;20218;-78
2022/12/17 21:16:34;;;;;;;0.20;0.20;;;;;;;;;;4972667;28;20257;-77
2022/12/17 21:19:03;;;;;;;0.20;0.20;;;;;;;;;;4973952;28;20206;-78
2022/12/17 21:21:34;;;;;;;0.20;0.20;;;;;;;;;;4974350;28;20226;-76
2022/12/17 21:24:03;;;;;;;0.20;0.20;;;;;;;;;;4974454;28;20213;-77
2022/12/17 21:26:32;;;;;;;0.20;0.20;;;;;;;;;;4972723;28;20575;-77
2022/12/17 21:29:02;;;;;;;0.20;0.20;;;;;;;;;;4973665;28;20206;-77
2022/12/17 21:31:36;;;;;;;0.20;0.20;;;;;;;;;;4974399;28;20206;-76
2022/12/17 21:34:05;;;;;;;0.20;0.20;;;;;;;;;;4974465;28;20280;-79
2022/12/17 21:36:35;;;;;;;0.20;0.20;;;;;;;;;;4996468;28;20228;-77
2022/12/17 21:39:06;;;;;;;0.20;0.20;;;;;;;;;;4990814;28;20208;-77
2022/12/17 21:41:37;;;;;;;0.30;0.30;;;;;;;;;;4977452;28;20729;-76
2022/12/17 21:44:12;;;;;;;0.20;0.20;;;;;;;;;;4977801;28;20212;-75
2022/12/17 21:46:45;;;;;;;0.30;0.30;;;;;;;;;;4973072;28;20301;-78
2022/12/17 21:49:17;;;;;;;0.30;0.30;;;;;;;;;;4977680;28;20194;-78
2022/12/17 21:51:48;;;;;;;0.30;0.30;;;;;;;;;;4977457;28;20204;-76
2022/12/17 21:54:16;;;;;;;0.20;0.20;;;;;;;;;;4984347;28;20304;-76
2022/12/17 21:56:47;;;;;;;0.20;0.20;;;;;;;;;;4977516;28;20758;-76
2022/12/17 21:59:16;;;;;;;0.20;0.20;;;;;;;;;;4980111;28;20220;-77
2022/12/17 22:01:44;;;;;;;0.30;0.30;;;;;;;;;;4996520;28;20782;-78
2022/12/17 22:04:13;;;;;;;0.30;0.30;;;;;;;;;;4996805;28;20284;-75
2022/12/17 22:06:42;;;;;;;0.20;0.20;;;;;;;;;;4984411;28;20316;-76
2022/12/17 22:09:28;;;;;;;0.20;0.20;;;;;;;;;;4976997;28;20190;-79
2022/12/17 22:15:03;;;;;;;0.20;0.20;;;;;;;;;;4973498;28;20313;-77
2022/12/17 22:17:32;;;;;;;0.20;0.20;;;;;;;;;;4976405;28;20218;-77
2022/12/17 22:20:00;;;;;;;0.30;0.30;;;;;;;;;;4976778;28;20666;-77
2022/12/17 22:22:29;;;;;;;0.20;0.20;;;;;;;;;;4976896;28;20593;-84
2022/12/17 22:24:59;;;;;;;0.20;0.20;;;;;;;;;;4965011;28;20226;-84
2022/12/17 22:27:35;;;;;;;0.20;0.20;;;;;;;;;;4963025;28;20667;-77
2022/12/17 22:32:59;;;;;;;0.20;0.20;;;;;;;;;;4958871;28;20275;-77
2022/12/17 22:35:33;;;;;;;0.20;0.20;;;;;;;;;;4976684;28;20765;-77
2022/12/17 22:38:21;;;;;;;0.20;0.20;;;;;;;;;;4976981;28;20297;-78
2022/12/17 22:43:28;;;;;;;0.30;0.30;;;;;;;;;;4977815;28;20221;-77
2022/12/17 22:44:19;;;;;;;0.30;0.30;;;;;;;;;;4976858;28;20565;-77
2022/12/17 22:47:08;;;;;;;0.30;0.30;;;;;;;;;;4970067;28;20220;-81
2022/12/17 22:49:37;;;;;;;0.20;0.20;;;;;;;;;;4976757;28;20234;-77
2022/12/17 22:52:06;;;;;;;0.20;0.20;;;;;;;;;;4976677;28;20253;-78
2022/12/17 22:54:35;;;;;;;0.30;0.30;;;;;;;;;;4974556;28;20210;-78
2022/12/17 22:57:05;;;;;;;0.30;0.30;;;;;;;;;;4969348;28;20210;-77
2022/12/17 22:59:53;;;;;;;0.30;0.30;;;;;;;;;;4968213;28;20241;-77
2022/12/17 23:02:22;;;;;;;0.30;0.30;;;;;;;;;;4975982;28;20288;-78
2022/12/17 23:04:51;;;;;;;0.30;0.30;;;;;;;;;;4975707;28;20225;-78
2022/12/17 23:07:19;;;;;;;0.30;0.30;;;;;;;;;;4976416;28;20257;-77
2022/12/17 23:09:47;;;;;;;0.30;0.30;;;;;;;;;;4975314;28;20240;-77
2022/12/17 23:15:04;;;;;;;0.30;0.30;;;;;;;;;;4956749;28;20688;-77
2022/12/17 23:17:32;;;;;;;0.30;0.30;;;;;;;;;;4956748;29;20254;-79
2022/12/17 23:20:02;;;;;;;0.30;0.30;;;;;;;;;;4958464;28;20213;-76
2022/12/17 23:22:31;;;;;;;0.30;0.30;;;;;;;;;;4975823;28;20309;-77
2022/12/17 23:24:59;;;;;;;0.30;0.30;;;;;;;;;;4971147;28;20280;-78
2022/12/17 23:27:29;;;;;;;0.30;0.30;;;;;;;;;;4975569;28;20690;-79
2022/12/17 23:29:58;;;;;;;0.30;0.30;;;;;;;;;;4975336;28;20206;-77
2022/12/17 23:32:26;;;;;;;0.30;0.30;;;;;;;;;;4976143;28;20616;-78
2022/12/17 23:34:56;;;;;;;0.30;0.30;;;;;;;;;;4975210;28;20257;-77
2022/12/17 23:37:25;;;;;;;0.30;0.30;;;;;;;;;;4975468;28;20248;-77
2022/12/17 23:39:53;;;;;;;0.30;0.30;;;;;;;;;;4975924;28;20224;-79
2022/12/17 23:42:22;;;;;;;0.40;0.40;;;;;;;;;;4975171;28;20230;-78
2022/12/17 23:44:52;;;;;;;0.30;0.30;;;;;;;;;;4975150;28;20260;-80
2022/12/17 23:47:20;;;;;;;0.30;0.30;;;;;;;;;;4974809;28;20234;-78
2022/12/17 23:49:49;;;;;;;0.30;0.30;;;;;;;;;;4975374;28;20715;-78
2022/12/17 23:52:17;;;;;;;0.30;0.30;;;;;;;;;;4975744;28;20252;-76
2022/12/17 23:54:45;;;;;;;0.30;0.30;;;;;;;;;;4968425;28;20316;-76
2022/12/17 23:57:14;;;;;;;0.30;0.30;;;;;;;;;;4975110;28;20202;-76
2022/12/17 23:59:42;;;;;;;0.40;0.40;;;;;;;;;;4975496;28;20619;-77
